sensor_id;sensor_type;location;lat;lon;timestamp;P1;durP1;ratioP1;P2;durP2;ratioP2
32838;SDS011;19182;41.820;12.808;2023-05-29T00:00:22;8.18;;;5.90;;
32838;SDS011;19182;41.820;12.808;2023-05-29T00:02:49;9.50;;;6.07;;
32838;SDS011;19182;41.820;12.808;2023-05-29T00:05:15;8.95;;;6.15;;
32838;SDS011;19182;41.820;12.808;2023-05-29T00:07:42;9.02;;;6.00;;
32838;SDS011;19182;41.820;12.808;2023-05-29T00:10:09;7.35;;;5.80;;
32838;SDS011;19182;41.820;12.808;2023-05-29T00:12:36;11.80;;;6.65;;
32838;SDS011;19182;41.820;12.808;2023-05-29T00:15:04;10.23;;;6.57;;
32838;SDS011;19182;41.820;12.808;2023-05-29T00:17:31;14.25;;;7.30;;
32838;SDS011;19182;41.820;12.808;2023-05-29T00:19:59;9.85;;;6.68;;
32838;SDS011;19182;41.820;12.808;2023-05-29T00:22:26;10.85;;;7.60;;
32838;SDS011;19182;41.820;12.808;2023-05-29T00:24:52;10.25;;;6.78;;
32838;SDS011;19182;41.820;12.808;2023-05-29T00:27:19;11.02;;;7.03;;
32838;SDS011;19182;41.820;12.808;2023-05-29T00:29:45;13.07;;;8.02;;
32838;SDS011;19182;41.820;12.808;2023-05-29T00:32:11;9.57;;;7.03;;
32838;SDS011;19182;41.820;12.808;2023-05-29T00:34:38;15.68;;;6.97;;
32838;SDS011;19182;41.820;12.808;2023-05-29T00:37:04;9.68;;;6.30;;
32838;SDS011;19182;41.820;12.808;2023-05-29T00:39:30;10.38;;;6.72;;
32838;SDS011;19182;41.820;12.808;2023-05-29T00:41:57;6.63;;;5.63;;
32838;SDS011;19182;41.820;12.808;2023-05-29T00:44:23;10.45;;;6.78;;
32838;SDS011;19182;41.820;12.808;2023-05-29T00:46:49;12.68;;;6.47;;
32838;SDS011;19182;41.820;12.808;2023-05-29T00:49:23;12.55;;;6.07;;
32838;SDS011;19182;41.820;12.808;2023-05-29T00:51:50;10.15;;;7.05;;
32838;SDS011;19182;41.820;12.808;2023-05-29T00:54:21;11.18;;;6.75;;
32838;SDS011;19182;41.820;12.808;2023-05-29T00:56:51;12.13;;;5.85;;
32838;SDS011;19182;41.820;12.808;2023-05-29T00:59:17;10.63;;;6.68;;
32838;SDS011;19182;41.820;12.808;2023-05-29T01:01:47;8.30;;;6.20;;
32838;SDS011;19182;41.820;12.808;2023-05-29T01:04:15;14.00;;;5.75;;
32838;SDS011;19182;41.820;12.808;2023-05-29T01:06:43;12.98;;;6.07;;
32838;SDS011;19182;41.820;12.808;2023-05-29T01:09:09;9.48;;;6.25;;
32838;SDS011;19182;41.820;12.808;2023-05-29T01:11:57;12.15;;;6.55;;
32838;SDS011;19182;41.820;12.808;2023-05-29T01:17:37;8.50;;;6.05;;
32838;SDS011;19182;41.820;12.808;2023-05-29T01:28:37;6.95;;;5.60;;
32838;SDS011;19182;41.820;12.808;2023-05-29T01:31:07;7.57;;;5.93;;
32838;SDS011;19182;41.820;12.808;2023-05-29T01:33:39;10.30;;;5.80;;
32838;SDS011;19182;41.820;12.808;2023-05-29T01:41:01;8.77;;;5.85;;
32838;SDS011;19182;41.820;12.808;2023-05-29T01:43:28;9.65;;;5.85;;
32838;SDS011;19182;41.820;12.808;2023-05-29T01:45:55;9.85;;;5.93;;
32838;SDS011;19182;41.820;12.808;2023-05-29T01:48:22;9.82;;;5.55;;
32838;SDS011;19182;41.820;12.808;2023-05-29T01:50:49;7.57;;;5.60;;
32838;SDS011;19182;41.820;12.808;2023-05-29T01:53:16;11.60;;;5.93;;
32838;SDS011;19182;41.820;12.808;2023-05-29T01:55:43;11.82;;;5.97;;
32838;SDS011;19182;41.820;12.808;2023-05-29T01:58:10;10.68;;;6.32;;
32838;SDS011;19182;41.820;12.808;2023-05-29T02:00:37;9.13;;;6.32;;
32838;SDS011;19182;41.820;12.808;2023-05-29T02:03:05;10.13;;;6.15;;
32838;SDS011;19182;41.820;12.808;2023-05-29T02:05:32;10.98;;;6.10;;
32838;SDS011;19182;41.820;12.808;2023-05-29T02:07:58;9.93;;;6.20;;
32838;SDS011;19182;41.820;12.808;2023-05-29T02:10:23;10.85;;;6.40;;
32838;SDS011;19182;41.820;12.808;2023-05-29T02:12:49;10.88;;;6.78;;
32838;SDS011;19182;41.820;12.808;2023-05-29T02:15:15;7.80;;;5.47;;
32838;SDS011;19182;41.820;12.808;2023-05-29T02:17:41;8.32;;;6.13;;
32838;SDS011;19182;41.820;12.808;2023-05-29T02:20:10;7.25;;;5.57;;
32838;SDS011;19182;41.820;12.808;2023-05-29T02:22:36;9.63;;;5.35;;
32838;SDS011;19182;41.820;12.808;2023-05-29T02:25:02;10.32;;;6.00;;
32838;SDS011;19182;41.820;12.808;2023-05-29T02:27:29;10.77;;;6.57;;
32838;SDS011;19182;41.820;12.808;2023-05-29T02:29:55;7.00;;;5.53;;
32838;SDS011;19182;41.820;12.808;2023-05-29T02:32:23;9.55;;;5.63;;
32838;SDS011;19182;41.820;12.808;2023-05-29T02:34:51;7.93;;;6.15;;
32838;SDS011;19182;41.820;12.808;2023-05-29T02:37:17;7.63;;;5.90;;
32838;SDS011;19182;41.820;12.808;2023-05-29T02:39:44;11.57;;;6.75;;
32838;SDS011;19182;41.820;12.808;2023-05-29T02:42:11;7.80;;;5.85;;
32838;SDS011;19182;41.820;12.808;2023-05-29T02:44:37;10.52;;;6.70;;
32838;SDS011;19182;41.820;12.808;2023-05-29T02:47:03;11.38;;;7.43;;
32838;SDS011;19182;41.820;12.808;2023-05-29T02:49:29;15.07;;;6.93;;
32838;SDS011;19182;41.820;12.808;2023-05-29T02:51:55;9.07;;;6.68;;
32838;SDS011;19182;41.820;12.808;2023-05-29T02:54:25;9.38;;;6.60;;
32838;SDS011;19182;41.820;12.808;2023-05-29T02:56:52;8.43;;;6.30;;
32838;SDS011;19182;41.820;12.808;2023-05-29T02:59:17;8.25;;;6.07;;
32838;SDS011;19182;41.820;12.808;2023-05-29T03:01:43;8.40;;;6.15;;
32838;SDS011;19182;41.820;12.808;2023-05-29T03:04:10;11.07;;;6.90;;
32838;SDS011;19182;41.820;12.808;2023-05-29T03:06:36;9.15;;;6.03;;
32838;SDS011;19182;41.820;12.808;2023-05-29T03:09:02;11.07;;;6.30;;
32838;SDS011;19182;41.820;12.808;2023-05-29T03:11:30;8.80;;;6.18;;
32838;SDS011;19182;41.820;12.808;2023-05-29T03:13:56;12.18;;;6.63;;
32838;SDS011;19182;41.820;12.808;2023-05-29T03:16:22;8.77;;;6.63;;
32838;SDS011;19182;41.820;12.808;2023-05-29T03:18:47;12.85;;;6.30;;
32838;SDS011;19182;41.820;12.808;2023-05-29T03:21:15;9.30;;;6.45;;
32838;SDS011;19182;41.820;12.808;2023-05-29T03:23:41;8.85;;;6.80;;
32838;SDS011;19182;41.820;12.808;2023-05-29T03:26:07;12.13;;;6.60;;
32838;SDS011;19182;41.820;12.808;2023-05-29T03:28:32;11.55;;;6.63;;
32838;SDS011;19182;41.820;12.808;2023-05-29T03:30:59;11.23;;;6.57;;
32838;SDS011;19182;41.820;12.808;2023-05-29T03:33:25;10.10;;;6.55;;
32838;SDS011;19182;41.820;12.808;2023-05-29T03:35:52;8.15;;;6.50;;
32838;SDS011;19182;41.820;12.808;2023-05-29T03:38:18;8.68;;;6.35;;
32838;SDS011;19182;41.820;12.808;2023-05-29T03:40:44;10.73;;;6.65;;
32838;SDS011;19182;41.820;12.808;2023-05-29T03:43:11;11.02;;;6.70;;
32838;SDS011;19182;41.820;12.808;2023-05-29T03:45:36;12.27;;;5.88;;
32838;SDS011;19182;41.820;12.808;2023-05-29T03:48:03;8.85;;;5.78;;
32838;SDS011;19182;41.820;12.808;2023-05-29T03:50:30;7.35;;;5.75;;
32838;SDS011;19182;41.820;12.808;2023-05-29T03:52:57;11.88;;;7.07;;
32838;SDS011;19182;41.820;12.808;2023-05-29T03:55:23;7.53;;;6.55;;
32838;SDS011;19182;41.820;12.808;2023-05-29T03:57:50;10.18;;;7.03;;
32838;SDS011;19182;41.820;12.808;2023-05-29T04:00:17;10.50;;;6.15;;
32838;SDS011;19182;41.820;12.808;2023-05-29T04:02:43;9.93;;;6.78;;
32838;SDS011;19182;41.820;12.808;2023-05-29T04:05:09;10.38;;;7.30;;
32838;SDS011;19182;41.820;12.808;2023-05-29T04:07:37;9.10;;;6.75;;
32838;SDS011;19182;41.820;12.808;2023-05-29T04:10:04;9.23;;;6.75;;
32838;SDS011;19182;41.820;12.808;2023-05-29T04:12:31;8.55;;;6.60;;
32838;SDS011;19182;41.820;12.808;2023-05-29T04:14:57;8.85;;;6.93;;
32838;SDS011;19182;41.820;12.808;2023-05-29T04:17:23;8.70;;;6.32;;
32838;SDS011;19182;41.820;12.808;2023-05-29T04:19:50;10.48;;;6.85;;
32838;SDS011;19182;41.820;12.808;2023-05-29T04:22:17;8.52;;;6.45;;
32838;SDS011;19182;41.820;12.808;2023-05-29T04:24:45;11.68;;;7.22;;
32838;SDS011;19182;41.820;12.808;2023-05-29T04:27:12;10.05;;;6.82;;
32838;SDS011;19182;41.820;12.808;2023-05-29T04:29:42;9.13;;;6.28;;
32838;SDS011;19182;41.820;12.808;2023-05-29T04:32:08;11.13;;;6.53;;
32838;SDS011;19182;41.820;12.808;2023-05-29T04:34:36;11.77;;;7.40;;
32838;SDS011;19182;41.820;12.808;2023-05-29T04:37:03;12.07;;;5.88;;
32838;SDS011;19182;41.820;12.808;2023-05-29T04:39:30;10.30;;;5.72;;
32838;SDS011;19182;41.820;12.808;2023-05-29T04:41:57;11.05;;;6.55;;
32838;SDS011;19182;41.820;12.808;2023-05-29T04:44:26;11.45;;;5.82;;
32838;SDS011;19182;41.820;12.808;2023-05-29T04:46:54;9.40;;;6.43;;
32838;SDS011;19182;41.820;12.808;2023-05-29T04:49:21;11.35;;;6.13;;
32838;SDS011;19182;41.820;12.808;2023-05-29T04:51:47;13.13;;;6.20;;
32838;SDS011;19182;41.820;12.808;2023-05-29T04:54:17;8.07;;;5.80;;
32838;SDS011;19182;41.820;12.808;2023-05-29T04:56:44;7.97;;;5.30;;
32838;SDS011;19182;41.820;12.808;2023-05-29T04:59:11;8.93;;;6.53;;
32838;SDS011;19182;41.820;12.808;2023-05-29T05:01:38;7.93;;;5.68;;
32838;SDS011;19182;41.820;12.808;2023-05-29T05:04:04;9.18;;;5.43;;
32838;SDS011;19182;41.820;12.808;2023-05-29T05:06:31;7.55;;;5.53;;
32838;SDS011;19182;41.820;12.808;2023-05-29T05:08:57;10.43;;;5.30;;
32838;SDS011;19182;41.820;12.808;2023-05-29T05:11:23;8.05;;;5.90;;
32838;SDS011;19182;41.820;12.808;2023-05-29T05:13:50;15.55;;;6.03;;
32838;SDS011;19182;41.820;12.808;2023-05-29T05:16:17;9.48;;;5.05;;
32838;SDS011;19182;41.820;12.808;2023-05-29T05:18:44;6.40;;;4.35;;
32838;SDS011;19182;41.820;12.808;2023-05-29T05:21:11;6.30;;;4.32;;
32838;SDS011;19182;41.820;12.808;2023-05-29T05:23:37;8.68;;;4.25;;
32838;SDS011;19182;41.820;12.808;2023-05-29T05:26:04;6.82;;;4.70;;
32838;SDS011;19182;41.820;12.808;2023-05-29T05:28:29;5.53;;;4.35;;
32838;SDS011;19182;41.820;12.808;2023-05-29T05:30:56;5.68;;;4.45;;
32838;SDS011;19182;41.820;12.808;2023-05-29T05:33:23;5.97;;;4.32;;
32838;SDS011;19182;41.820;12.808;2023-05-29T05:35:49;7.50;;;4.82;;
32838;SDS011;19182;41.820;12.808;2023-05-29T05:38:16;6.85;;;4.40;;
32838;SDS011;19182;41.820;12.808;2023-05-29T05:40:44;4.82;;;4.07;;
32838;SDS011;19182;41.820;12.808;2023-05-29T05:43:11;8.77;;;4.07;;
32838;SDS011;19182;41.820;12.808;2023-05-29T05:45:38;6.38;;;4.18;;
32838;SDS011;19182;41.820;12.808;2023-05-29T05:48:07;7.10;;;3.80;;
32838;SDS011;19182;41.820;12.808;2023-05-29T05:50:33;6.38;;;4.05;;
32838;SDS011;19182;41.820;12.808;2023-05-29T05:52:59;5.65;;;4.00;;
32838;SDS011;19182;41.820;12.808;2023-05-29T05:55:25;6.65;;;4.50;;
32838;SDS011;19182;41.820;12.808;2023-05-29T05:57:53;7.32;;;4.07;;
32838;SDS011;19182;41.820;12.808;2023-05-29T06:00:22;7.95;;;4.13;;
32838;SDS011;19182;41.820;12.808;2023-05-29T06:02:48;12.95;;;4.47;;
32838;SDS011;19182;41.820;12.808;2023-05-29T06:05:13;6.20;;;3.92;;
32838;SDS011;19182;41.820;12.808;2023-05-29T06:07:40;5.15;;;4.20;;
32838;SDS011;19182;41.820;12.808;2023-05-29T06:10:06;5.03;;;3.92;;
32838;SDS011;19182;41.820;12.808;2023-05-29T06:12:32;6.90;;;3.92;;
32838;SDS011;19182;41.820;12.808;2023-05-29T06:14:59;4.88;;;3.47;;
32838;SDS011;19182;41.820;12.808;2023-05-29T06:17:27;7.20;;;3.85;;
32838;SDS011;19182;41.820;12.808;2023-05-29T06:19:54;5.82;;;3.85;;
32838;SDS011;19182;41.820;12.808;2023-05-29T06:22:20;6.10;;;3.45;;
32838;SDS011;19182;41.820;12.808;2023-05-29T06:24:47;7.43;;;3.90;;
32838;SDS011;19182;41.820;12.808;2023-05-29T06:27:14;8.27;;;4.10;;
32838;SDS011;19182;41.820;12.808;2023-05-29T06:29:40;6.47;;;4.22;;
32838;SDS011;19182;41.820;12.808;2023-05-29T06:32:07;8.65;;;4.93;;
32838;SDS011;19182;41.820;12.808;2023-05-29T06:34:33;6.35;;;3.78;;
32838;SDS011;19182;41.820;12.808;2023-05-29T06:36:59;6.47;;;4.00;;
32838;SDS011;19182;41.820;12.808;2023-05-29T06:39:26;5.13;;;3.95;;
32838;SDS011;19182;41.820;12.808;2023-05-29T06:41:52;5.82;;;3.97;;
32838;SDS011;19182;41.820;12.808;2023-05-29T06:44:18;6.25;;;4.15;;
32838;SDS011;19182;41.820;12.808;2023-05-29T06:46:44;4.68;;;3.95;;
32838;SDS011;19182;41.820;12.808;2023-05-29T06:49:10;12.40;;;4.22;;
32838;SDS011;19182;41.820;12.808;2023-05-29T06:51:38;5.85;;;3.83;;
32838;SDS011;19182;41.820;12.808;2023-05-29T06:54:05;6.50;;;4.13;;
32838;SDS011;19182;41.820;12.808;2023-05-29T06:56:31;4.13;;;3.67;;
32838;SDS011;19182;41.820;12.808;2023-05-29T06:58:58;4.53;;;3.53;;
32838;SDS011;19182;41.820;12.808;2023-05-29T07:01:24;5.93;;;3.97;;
32838;SDS011;19182;41.820;12.808;2023-05-29T07:03:54;5.78;;;3.55;;
32838;SDS011;19182;41.820;12.808;2023-05-29T07:06:21;4.18;;;3.70;;
32838;SDS011;19182;41.820;12.808;2023-05-29T07:08:47;5.05;;;4.10;;
32838;SDS011;19182;41.820;12.808;2023-05-29T07:11:15;12.95;;;3.63;;
32838;SDS011;19182;41.820;12.808;2023-05-29T07:13:41;7.93;;;3.65;;
32838;SDS011;19182;41.820;12.808;2023-05-29T07:16:07;9.27;;;3.72;;
32838;SDS011;19182;41.820;12.808;2023-05-29T07:18:33;5.03;;;3.70;;
32838;SDS011;19182;41.820;12.808;2023-05-29T07:20:59;5.47;;;4.32;;
32838;SDS011;19182;41.820;12.808;2023-05-29T07:23:25;4.32;;;3.92;;
32838;SDS011;19182;41.820;12.808;2023-05-29T07:25:51;5.68;;;3.75;;
32838;SDS011;19182;41.820;12.808;2023-05-29T07:28:17;4.70;;;3.70;;
32838;SDS011;19182;41.820;12.808;2023-05-29T07:30:44;5.55;;;3.92;;
32838;SDS011;19182;41.820;12.808;2023-05-29T07:33:09;3.90;;;3.50;;
32838;SDS011;19182;41.820;12.808;2023-05-29T07:35:35;5.03;;;3.28;;
32838;SDS011;19182;41.820;12.808;2023-05-29T07:38:01;3.55;;;3.13;;
32838;SDS011;19182;41.820;12.808;2023-05-29T07:40:27;5.22;;;3.78;;
32838;SDS011;19182;41.820;12.808;2023-05-29T07:42:53;6.13;;;3.75;;
32838;SDS011;19182;41.820;12.808;2023-05-29T07:45:19;4.78;;;3.35;;
32838;SDS011;19182;41.820;12.808;2023-05-29T07:47:46;5.22;;;3.72;;
32838;SDS011;19182;41.820;12.808;2023-05-29T07:50:13;5.75;;;3.53;;
32838;SDS011;19182;41.820;12.808;2023-05-29T07:52:42;6.45;;;4.00;;
32838;SDS011;19182;41.820;12.808;2023-05-29T07:55:09;5.97;;;4.13;;
32838;SDS011;19182;41.820;12.808;2023-05-29T07:57:35;4.95;;;3.70;;
32838;SDS011;19182;41.820;12.808;2023-05-29T08:00:00;7.35;;;4.28;;
32838;SDS011;19182;41.820;12.808;2023-05-29T08:02:33;8.30;;;3.58;;
32838;SDS011;19182;41.820;12.808;2023-05-29T08:04:59;5.90;;;3.42;;
32838;SDS011;19182;41.820;12.808;2023-05-29T08:07:25;6.03;;;4.22;;
32838;SDS011;19182;41.820;12.808;2023-05-29T08:09:54;5.43;;;3.60;;
32838;SDS011;19182;41.820;12.808;2023-05-29T08:12:20;6.20;;;3.50;;
32838;SDS011;19182;41.820;12.808;2023-05-29T08:14:46;5.43;;;3.80;;
32838;SDS011;19182;41.820;12.808;2023-05-29T08:17:12;8.07;;;3.97;;
32838;SDS011;19182;41.820;12.808;2023-05-29T08:19:37;4.38;;;3.58;;
32838;SDS011;19182;41.820;12.808;2023-05-29T08:22:03;6.50;;;3.80;;
32838;SDS011;19182;41.820;12.808;2023-05-29T08:24:30;5.47;;;4.10;;
32838;SDS011;19182;41.820;12.808;2023-05-29T08:26:58;3.90;;;3.50;;
32838;SDS011;19182;41.820;12.808;2023-05-29T08:29:25;6.32;;;4.53;;
32838;SDS011;19182;41.820;12.808;2023-05-29T08:31:51;9.80;;;4.30;;
32838;SDS011;19182;41.820;12.808;2023-05-29T08:34:18;6.30;;;4.60;;
32838;SDS011;19182;41.820;12.808;2023-05-29T08:36:43;7.28;;;5.30;;
32838;SDS011;19182;41.820;12.808;2023-05-29T08:39:10;7.05;;;4.57;;
32838;SDS011;19182;41.820;12.808;2023-05-29T08:42:39;9.73;;;4.57;;
32838;SDS011;19182;41.820;12.808;2023-05-29T08:44:43;7.38;;;4.50;;
32838;SDS011;19182;41.820;12.808;2023-05-29T08:47:14;11.98;;;4.85;;
32838;SDS011;19182;41.820;12.808;2023-05-29T08:49:45;6.05;;;4.28;;
32838;SDS011;19182;41.820;12.808;2023-05-29T08:52:24;7.50;;;4.53;;
32838;SDS011;19182;41.820;12.808;2023-05-29T08:54:52;7.47;;;4.43;;
32838;SDS011;19182;41.820;12.808;2023-05-29T08:57:19;6.95;;;4.60;;
32838;SDS011;19182;41.820;12.808;2023-05-29T08:59:50;12.10;;;4.80;;
32838;SDS011;19182;41.820;12.808;2023-05-29T09:02:17;7.60;;;4.78;;
32838;SDS011;19182;41.820;12.808;2023-05-29T09:04:44;9.30;;;4.45;;
32838;SDS011;19182;41.820;12.808;2023-05-29T09:07:11;9.27;;;4.63;;
32838;SDS011;19182;41.820;12.808;2023-05-29T09:09:37;9.20;;;5.07;;
32838;SDS011;19182;41.820;12.808;2023-05-29T09:12:03;7.43;;;4.45;;
32838;SDS011;19182;41.820;12.808;2023-05-29T09:17:02;9.30;;;5.05;;
32838;SDS011;19182;41.820;12.808;2023-05-29T09:19:29;7.00;;;5.03;;
32838;SDS011;19182;41.820;12.808;2023-05-29T09:22:08;7.75;;;4.88;;
32838;SDS011;19182;41.820;12.808;2023-05-29T09:24:41;6.15;;;4.63;;
32838;SDS011;19182;41.820;12.808;2023-05-29T09:27:11;8.82;;;5.15;;
32838;SDS011;19182;41.820;12.808;2023-05-29T09:29:40;12.52;;;4.97;;
32838;SDS011;19182;41.820;12.808;2023-05-29T09:32:07;8.98;;;5.43;;
32838;SDS011;19182;41.820;12.808;2023-05-29T09:34:35;7.93;;;5.20;;
32838;SDS011;19182;41.820;12.808;2023-05-29T09:37:10;10.13;;;5.60;;
32838;SDS011;19182;41.820;12.808;2023-05-29T09:39:48;10.93;;;6.95;;
32838;SDS011;19182;41.820;12.808;2023-05-29T09:42:14;10.85;;;6.65;;
32838;SDS011;19182;41.820;12.808;2023-05-29T09:44:49;7.45;;;5.45;;
32838;SDS011;19182;41.820;12.808;2023-05-29T09:47:18;9.52;;;6.13;;
32838;SDS011;19182;41.820;12.808;2023-05-29T09:49:46;9.73;;;6.10;;
32838;SDS011;19182;41.820;12.808;2023-05-29T09:52:12;7.90;;;6.07;;
32838;SDS011;19182;41.820;12.808;2023-05-29T09:54:42;8.40;;;6.15;;
32838;SDS011;19182;41.820;12.808;2023-05-29T09:57:16;11.60;;;6.35;;
32838;SDS011;19182;41.820;12.808;2023-05-29T09:59:44;6.60;;;5.18;;
32838;SDS011;19182;41.820;12.808;2023-05-29T10:02:16;8.50;;;6.25;;
32838;SDS011;19182;41.820;12.808;2023-05-29T10:04:42;8.13;;;5.53;;
32838;SDS011;19182;41.820;12.808;2023-05-29T10:07:32;9.70;;;6.35;;
32838;SDS011;19182;41.820;12.808;2023-05-29T10:10:01;10.88;;;6.30;;
32838;SDS011;19182;41.820;12.808;2023-05-29T10:12:42;13.30;;;6.40;;
32838;SDS011;19182;41.820;12.808;2023-05-29T10:15:13;10.88;;;6.90;;
32838;SDS011;19182;41.820;12.808;2023-05-29T10:20:38;7.15;;;5.22;;
32838;SDS011;19182;41.820;12.808;2023-05-29T10:23:08;8.38;;;5.50;;
32838;SDS011;19182;41.820;12.808;2023-05-29T10:25:36;8.35;;;5.20;;
32838;SDS011;19182;41.820;12.808;2023-05-29T10:28:02;9.00;;;5.72;;
32838;SDS011;19182;41.820;12.808;2023-05-29T10:38:13;10.23;;;6.60;;
32838;SDS011;19182;41.820;12.808;2023-05-29T10:40:43;9.93;;;6.25;;
32838;SDS011;19182;41.820;12.808;2023-05-29T10:43:29;11.25;;;6.43;;
32838;SDS011;19182;41.820;12.808;2023-05-29T10:45:57;7.93;;;6.15;;
32838;SDS011;19182;41.820;12.808;2023-05-29T10:50:54;16.88;;;9.05;;
32838;SDS011;19182;41.820;12.808;2023-05-29T10:53:24;14.75;;;10.55;;
32838;SDS011;19182;41.820;12.808;2023-05-29T10:55:52;14.18;;;9.38;;
32838;SDS011;19182;41.820;12.808;2023-05-29T10:58:19;10.98;;;5.80;;
32838;SDS011;19182;41.820;12.808;2023-05-29T11:00:46;9.10;;;4.88;;
32838;SDS011;19182;41.820;12.808;2023-05-29T11:03:19;6.57;;;4.22;;
32838;SDS011;19182;41.820;12.808;2023-05-29T11:08:32;11.93;;;7.82;;
32838;SDS011;19182;41.820;12.808;2023-05-29T11:11:14;9.40;;;5.00;;
32838;SDS011;19182;41.820;12.808;2023-05-29T11:13:49;7.32;;;4.72;;
32838;SDS011;19182;41.820;12.808;2023-05-29T11:18:55;7.15;;;4.43;;
32838;SDS011;19182;41.820;12.808;2023-05-29T11:24:22;6.65;;;4.30;;
32838;SDS011;19182;41.820;12.808;2023-05-29T11:26:53;6.13;;;4.05;;
32838;SDS011;19182;41.820;12.808;2023-05-29T11:29:26;5.80;;;4.13;;
32838;SDS011;19182;41.820;12.808;2023-05-29T11:32:05;6.65;;;4.65;;
32838;SDS011;19182;41.820;12.808;2023-05-29T11:34:35;6.22;;;4.55;;
32838;SDS011;19182;41.820;12.808;2023-05-29T11:37:06;6.68;;;3.85;;
32838;SDS011;19182;41.820;12.808;2023-05-29T11:39:36;6.90;;;4.88;;
32838;SDS011;19182;41.820;12.808;2023-05-29T11:42:02;7.45;;;5.18;;
32838;SDS011;19182;41.820;12.808;2023-05-29T11:44:32;9.07;;;6.38;;
32838;SDS011;19182;41.820;12.808;2023-05-29T11:49:34;12.10;;;6.70;;
32838;SDS011;19182;41.820;12.808;2023-05-29T11:52:13;12.07;;;7.20;;
32838;SDS011;19182;41.820;12.808;2023-05-29T11:54:39;22.35;;;9.20;;
32838;SDS011;19182;41.820;12.808;2023-05-29T11:57:17;15.65;;;7.88;;
32838;SDS011;19182;41.820;12.808;2023-05-29T11:59:43;13.35;;;7.88;;
32838;SDS011;19182;41.820;12.808;2023-05-29T12:02:09;12.25;;;5.22;;
32838;SDS011;19182;41.820;12.808;2023-05-29T12:04:39;24.30;;;7.57;;
32838;SDS011;19182;41.820;12.808;2023-05-29T12:07:17;11.10;;;5.22;;
32838;SDS011;19182;41.820;12.808;2023-05-29T12:12:10;9.25;;;4.28;;
32838;SDS011;19182;41.820;12.808;2023-05-29T12:14:37;8.45;;;3.92;;
32838;SDS011;19182;41.820;12.808;2023-05-29T12:17:04;7.18;;;4.03;;
32838;SDS011;19182;41.820;12.808;2023-05-29T12:19:30;8.25;;;3.92;;
32838;SDS011;19182;41.820;12.808;2023-05-29T12:21:56;18.25;;;6.47;;
32838;SDS011;19182;41.820;12.808;2023-05-29T12:24:22;16.10;;;5.35;;
32838;SDS011;19182;41.820;12.808;2023-05-29T12:26:48;13.45;;;6.20;;
32838;SDS011;19182;41.820;12.808;2023-05-29T12:29:16;18.60;;;6.22;;
32838;SDS011;19182;41.820;12.808;2023-05-29T12:31:41;14.25;;;6.97;;
32838;SDS011;19182;41.820;12.808;2023-05-29T12:34:08;23.80;;;7.63;;
32838;SDS011;19182;41.820;12.808;2023-05-29T12:36:35;24.17;;;7.00;;
32838;SDS011;19182;41.820;12.808;2023-05-29T12:39:04;17.77;;;7.57;;
32838;SDS011;19182;41.820;12.808;2023-05-29T12:41:33;20.58;;;7.95;;
32838;SDS011;19182;41.820;12.808;2023-05-29T12:44:01;13.50;;;7.57;;
32838;SDS011;19182;41.820;12.808;2023-05-29T12:46:34;18.88;;;7.97;;
32838;SDS011;19182;41.820;12.808;2023-05-29T12:49:12;21.50;;;8.00;;
32838;SDS011;19182;41.820;12.808;2023-05-29T12:51:41;16.67;;;7.45;;
32838;SDS011;19182;41.820;12.808;2023-05-29T12:54:11;18.63;;;7.40;;
32838;SDS011;19182;41.820;12.808;2023-05-29T12:56:41;11.35;;;7.50;;
32838;SDS011;19182;41.820;12.808;2023-05-29T12:59:10;16.30;;;8.07;;
32838;SDS011;19182;41.820;12.808;2023-05-29T13:01:36;9.20;;;5.85;;
32838;SDS011;19182;41.820;12.808;2023-05-29T13:04:05;4.70;;;3.92;;
32838;SDS011;19182;41.820;12.808;2023-05-29T13:06:35;5.72;;;2.85;;
32838;SDS011;19182;41.820;12.808;2023-05-29T13:09:03;4.75;;;2.95;;
32838;SDS011;19182;41.820;12.808;2023-05-29T13:11:30;5.88;;;2.85;;
32838;SDS011;19182;41.820;12.808;2023-05-29T13:13:56;5.18;;;3.30;;
32838;SDS011;19182;41.820;12.808;2023-05-29T13:16:22;7.63;;;3.85;;
32838;SDS011;19182;41.820;12.808;2023-05-29T13:18:49;8.45;;;3.88;;
32838;SDS011;19182;41.820;12.808;2023-05-29T13:21:15;5.57;;;4.05;;
32838;SDS011;19182;41.820;12.808;2023-05-29T13:23:40;5.85;;;4.20;;
32838;SDS011;19182;41.820;12.808;2023-05-29T13:26:06;7.05;;;4.22;;
32838;SDS011;19182;41.820;12.808;2023-05-29T13:28:33;5.45;;;4.32;;
32838;SDS011;19182;41.820;12.808;2023-05-29T13:31:00;6.03;;;4.43;;
32838;SDS011;19182;41.820;12.808;2023-05-29T13:33:26;5.10;;;3.80;;
32838;SDS011;19182;41.820;12.808;2023-05-29T13:35:52;4.50;;;3.75;;
32838;SDS011;19182;41.820;12.808;2023-05-29T13:38:19;9.48;;;3.47;;
32838;SDS011;19182;41.820;12.808;2023-05-29T13:40:45;4.80;;;3.30;;
32838;SDS011;19182;41.820;12.808;2023-05-29T13:43:11;5.15;;;3.50;;
32838;SDS011;19182;41.820;12.808;2023-05-29T13:45:37;5.03;;;3.00;;
32838;SDS011;19182;41.820;12.808;2023-05-29T13:48:05;5.00;;;3.90;;
32838;SDS011;19182;41.820;12.808;2023-05-29T13:50:31;4.38;;;2.95;;
32838;SDS011;19182;41.820;12.808;2023-05-29T13:52:58;5.60;;;3.33;;
32838;SDS011;19182;41.820;12.808;2023-05-29T13:55:23;4.90;;;3.80;;
32838;SDS011;19182;41.820;12.808;2023-05-29T13:57:53;6.38;;;4.32;;
32838;SDS011;19182;41.820;12.808;2023-05-29T14:00:19;5.78;;;3.75;;
32838;SDS011;19182;41.820;12.808;2023-05-29T14:02:45;8.25;;;4.32;;
32838;SDS011;19182;41.820;12.808;2023-05-29T14:05:11;10.93;;;4.75;;
32838;SDS011;19182;41.820;12.808;2023-05-29T14:07:36;10.23;;;4.93;;
32838;SDS011;19182;41.820;12.808;2023-05-29T14:10:02;7.03;;;4.70;;
32838;SDS011;19182;41.820;12.808;2023-05-29T14:12:28;8.75;;;4.07;;
32838;SDS011;19182;41.820;12.808;2023-05-29T14:14:55;7.70;;;4.55;;
32838;SDS011;19182;41.820;12.808;2023-05-29T14:17:22;8.15;;;5.25;;
32838;SDS011;19182;41.820;12.808;2023-05-29T14:19:48;7.65;;;5.30;;
32838;SDS011;19182;41.820;12.808;2023-05-29T14:22:14;9.63;;;5.32;;
32838;SDS011;19182;41.820;12.808;2023-05-29T14:24:40;9.80;;;5.82;;
32838;SDS011;19182;41.820;12.808;2023-05-29T14:27:07;9.65;;;5.88;;
32838;SDS011;19182;41.820;12.808;2023-05-29T14:29:33;10.23;;;5.88;;
32838;SDS011;19182;41.820;12.808;2023-05-29T14:31:58;9.07;;;5.68;;
32838;SDS011;19182;41.820;12.808;2023-05-29T14:34:24;8.88;;;6.15;;
32838;SDS011;19182;41.820;12.808;2023-05-29T14:36:50;10.18;;;6.50;;
32838;SDS011;19182;41.820;12.808;2023-05-29T14:39:15;10.23;;;6.45;;
32838;SDS011;19182;41.820;12.808;2023-05-29T14:41:42;11.05;;;6.68;;
32838;SDS011;19182;41.820;12.808;2023-05-29T14:44:09;10.25;;;6.00;;
32838;SDS011;19182;41.820;12.808;2023-05-29T14:46:37;12.13;;;6.53;;
32838;SDS011;19182;41.820;12.808;2023-05-29T14:49:02;10.57;;;6.43;;
32838;SDS011;19182;41.820;12.808;2023-05-29T14:51:28;8.55;;;6.28;;
32838;SDS011;19182;41.820;12.808;2023-05-29T14:53:54;9.50;;;6.18;;
32838;SDS011;19182;41.820;12.808;2023-05-29T14:56:20;11.90;;;6.00;;
32838;SDS011;19182;41.820;12.808;2023-05-29T14:58:47;7.78;;;5.68;;
32838;SDS011;19182;41.820;12.808;2023-05-29T15:01:13;8.45;;;6.22;;
32838;SDS011;19182;41.820;12.808;2023-05-29T15:03:40;7.20;;;5.55;;
32838;SDS011;19182;41.820;12.808;2023-05-29T15:06:06;7.95;;;5.90;;
32838;SDS011;19182;41.820;12.808;2023-05-29T15:08:34;7.50;;;5.50;;
32838;SDS011;19182;41.820;12.808;2023-05-29T15:11:00;7.10;;;5.30;;
32838;SDS011;19182;41.820;12.808;2023-05-29T15:13:29;8.50;;;5.82;;
32838;SDS011;19182;41.820;12.808;2023-05-29T15:15:56;11.23;;;6.43;;
32838;SDS011;19182;41.820;12.808;2023-05-29T15:18:28;8.32;;;5.53;;